Latest Weather Observations for Cooktown

IDQ60801

Issued at 7:42 pm EST Thursday 16 August 2018 (issued every 10 minutes, with the page automatically refreshed every 10 minutes)

About weather observations | Map of weather stations | Latest weather observations for QLD | Other Formats
Station Details ID: 031209 Name: COOKTOWN AIRPORT Lat: -15.45 Lon: 145.19 Height: 4.8 m
Data from the previous 72 hours. | See also: Recent months at Cooktown
Date/Time
EST
Temp
°C
App
Temp
°C
Dew
Point
°C
Rel
Hum
%
Delta-T
°C
Wind Press
QNH
hPa
Press
MSL
hPa
Rain since
9am
mm
Dir  Spd
km/h
Gust
km/h
Spd
kts
Gust
kts
16/07:30pm 22.2 23.7 18.9 81 2.1 SE 9 15 5 8 1013.7 - 0.0
16/07:00pm 22.3 23.1 19.0 81 2.1 SE 13 19 7 10 1013.4 - 0.0
16/06:30pm 22.5 23.2 18.9 80 2.3 ESE 13 20 7 11 1013.2 - 0.0
16/06:00pm 22.9 22.9 19.0 78 2.5 SE 17 26 9 14 1013.0 1013.0 0.0
16/05:30pm 23.3 23.9 18.5 74 3.0 ESE 13 22 7 12 1013.0 - 0.0
16/05:00pm 24.2 22.7 17.6 66 4.1 E 22 28 12 15 1012.8 - 0.0
16/04:30pm 24.4 21.8 16.8 62 4.7 E 26 32 14 17 1012.8 - 0.0
16/04:00pm 24.5 22.4 18.0 67 4.1 E 26 33 14 18 1012.9 - 0.0
16/03:30pm 24.6 22.4 17.9 66 4.2 E 26 33 14 18 1013.0 - 0.0
16/03:00pm 24.5 23.1 18.0 67 4.1 E 22 32 12 17 1013.1 1013.2 0.0
16/02:30pm 24.9 23.2 18.1 66 4.3 ESE 24 35 13 19 1013.4 - 0.0
16/02:00pm 26.0 23.5 18.1 61 5.0 E 28 41 15 22 1013.6 - 0.0
16/01:30pm 25.6 23.4 17.8 62 4.9 E 26 37 14 20 1014.1 - 0.0
16/01:00pm 24.8 22.0 17.4 63 4.6 ESE 28 35 15 19 1014.5 - 0.0
16/12:30pm 25.8 23.5 17.5 60 5.2 E 26 33 14 18 1014.8 - 0.0
16/12:00pm 24.9 23.7 17.5 63 4.6 ESE 20 28 11 15 1015.3 1015.3 0.0
16/11:30am 24.6 22.6 17.5 64 4.4 ESE 24 33 13 18 1015.8 - 0.0
16/11:00am 24.2 21.8 17.4 65 4.2 ESE 26 35 14 19 1016.0 - 0.0
16/10:30am 24.9 23.5 17.9 65 4.4 ESE 22 32 12 17 1016.2 - 0.0
16/10:00am 24.3 23.8 17.7 66 4.1 SE 17 30 9 16 1016.5 - 0.0
16/09:30am 24.0 24.7 17.9 68 3.8 SE 11 17 6 9 1016.5 - 0.0
16/09:00am 22.6 24.2 17.9 75 2.9 S 6 9 3 5 1016.4 1016.4 0.4
16/08:30am 20.8 22.5 18.1 84 1.7 W 6 7 3 4 1016.2 - 0.4
16/08:00am 19.7 21.0 17.6 88 1.3 WNW 7 11 4 6 1016.0 - 0.4
16/07:30am 18.4 21.0 17.4 94 0.6 CALM 0 0 0 0 1015.8 - 0.4
16/07:00am 18.0 20.4 17.0 94 0.6 CALM 0 7 0 4 1015.6 - 0.4
16/06:30am 17.9 20.2 16.7 93 0.7 CALM 0 0 0 0 1015.5 - 0.4
16/06:00am 18.6 19.6 16.9 90 1.0 NNW 7 13 4 7 1014.9 1014.9 0.4
16/05:30am 19.0 20.1 17.2 89 1.1 WNW 7 9 4 5 1014.7 - 0.4
16/05:00am 19.6 21.4 17.5 88 1.3 SSW 4 7 2 4 1014.5 - 0.4
16/04:30am 19.9 21.0 17.1 84 1.7 SSW 7 9 4 5 1014.6 - 0.4
16/04:00am 20.1 22.1 17.8 86 1.4 SW 4 9 2 5 1014.6 - 0.4
16/03:30am 20.4 22.8 18.0 86 1.5 SSW 2 9 1 5 1014.7 - 0.4
16/03:00am 21.5 22.9 17.4 77 2.5 SSE 6 9 3 5 1014.9 1014.9 0.4
16/02:30am 21.5 22.6 17.1 76 2.7 ESE 7 9 4 5 1015.2 - 0.4
16/02:00am 21.6 22.4 17.4 77 2.6 SE 9 13 5 7 1015.4 - 0.4
16/01:30am 21.7 22.3 17.7 78 2.5 SE 11 13 6 7 1015.7 - 0.4
16/01:00am 21.7 21.7 18.0 79 2.3 SE 15 20 8 11 1016.0 - 0.4
16/12:30am 21.5 21.5 18.0 80 2.2 SE 15 24 8 13 1016.3 - 0.4
16/12:00am 21.4 21.9 18.4 83 1.9 SSE 13 20 7 11 1016.4 1016.5 0.4
 
Date/Time
EST
Temp
°C
App
Temp
°C
Dew
Point
°C
Rel
Hum
%
Delta-T
°C
Wind Press
QNH
hPa
Press
MSL
hPa
Rain since
9am
mm
Dir  Spd
km/h
Gust
km/h
Spd
kts
Gust
kts
15/11:30pm 21.6 22.6 18.6 83 1.9 SE 11 17 6 9 1016.6 - 0.4
15/11:00pm 21.8 22.4 18.6 82 2.0 SE 13 22 7 12 1016.8 - 0.4
15/10:30pm 22.1 21.4 18.3 79 2.4 SE 19 30 10 16 1016.7 - 0.4
15/10:00pm 22.0 22.1 18.3 79 2.3 SE 15 22 8 12 1016.8 - 0.4
15/09:30pm 22.1 22.2 18.3 79 2.4 SE 15 28 8 15 1017.0 - 0.4
15/09:00pm 21.9 22.5 18.5 81 2.1 SE 13 26 7 14 1016.9 1016.9 0.4
15/08:00pm 22.2 21.7 17.8 76 2.7 SSE 17 24 9 13 1016.5 - 0.0
15/07:30pm 22.1 22.0 17.9 77 2.6 SE 15 24 8 13 1016.2 - 0.0
15/07:00pm 22.3 22.0 17.4 74 3.0 SE 15 22 8 12 1016.2 - 0.0
15/06:30pm 22.7 22.1 16.6 68 3.7 SE 15 22 8 12 1015.8 - 0.0
15/06:00pm 23.2 22.0 16.1 64 4.3 SE 17 26 9 14 1015.6 1015.6 0.0
15/05:30pm 23.9 22.3 16.4 63 4.6 SE 20 30 11 16 1015.6 - 0.0
15/05:00pm 24.0 21.9 16.1 61 4.8 SE 22 32 12 17 1015.4 - 0.0
15/04:30pm 24.5 22.4 16.1 59 5.1 SE 22 35 12 19 1015.2 - 0.0
15/04:00pm 25.5 22.3 16.2 56 5.7 ESE 28 41 15 22 1015.2 - 0.0
15/03:30pm 25.7 23.0 15.7 54 6.1 SE 24 35 13 19 1015.2 - 0.0
15/03:00pm 25.9 22.8 16.5 56 5.8 ESE 28 43 15 23 1015.3 1015.3 0.0
15/02:30pm 25.9 22.2 15.9 54 6.1 ESE 30 43 16 23 1015.6 - 0.0
15/02:00pm 26.3 24.1 16.0 53 6.3 ESE 22 33 12 18 1016.0 - 0.0
15/01:30pm 25.5 22.7 15.4 53 6.1 SE 24 35 13 19 1016.4 - 0.0
15/01:00pm 25.8 22.4 14.8 50 6.6 ESE 26 41 14 22 1016.8 - 0.0
15/12:30pm 25.9 21.7 14.7 50 6.7 ESE 30 39 16 21 1017.2 - 0.0
15/12:00pm 26.0 22.9 14.4 48 6.9 ESE 24 35 13 19 1017.7 1017.8 0.0
15/11:30am 26.2 23.4 15.3 51 6.6 ESE 24 35 13 19 1017.8 - 0.0
15/11:00am 25.3 20.5 14.1 50 6.6 ESE 32 41 17 22 1017.9 - 0.0
15/10:30am 26.1 24.1 16.5 55 5.9 ESE 22 37 12 20 1018.1 - 0.0
15/10:00am 25.8 24.3 16.3 55 5.8 ESE 19 30 10 16 1018.4 - 0.0
15/09:30am 23.8 24.1 17.0 65 4.2 SE 11 17 6 9 1018.3 - 0.0
15/09:00am 22.1 23.7 15.9 68 3.7 S 2 6 1 3 1018.1 1018.1 0.0
15/08:30am 19.9 20.2 14.9 73 2.9 NW 7 11 4 6 1017.9 - 0.0
15/08:00am 17.3 17.5 14.3 82 1.7 W 6 9 3 5 1017.6 - 0.0
15/07:30am 16.2 16.5 14.6 90 0.9 W 6 9 3 5 1017.6 - 0.0
15/07:00am 15.0 16.3 14.1 94 0.5 CALM 0 0 0 0 1017.4 - 0.0
15/06:30am 14.9 16.1 13.8 93 0.6 CALM 0 0 0 0 1017.1 - 0.0
15/06:00am 15.7 17.1 14.3 91 0.8 CALM 0 0 0 0 1016.8 1016.8 0.0
15/05:30am 16.0 16.3 14.6 91 0.8 SSW 6 7 3 4 1016.8 - 0.0
15/05:00am 15.3 16.6 14.1 92 0.7 CALM 0 0 0 0 1016.7 - 0.0
15/04:30am 15.2 15.1 14.0 92 0.7 WNW 7 9 4 5 1016.7 - 0.0
15/04:00am 16.4 18.0 15.0 91 0.8 CALM 0 0 0 0 1016.8 - 0.0
15/03:30am 16.5 18.1 14.9 90 0.9 CALM 0 0 0 0 1017.0 - 0.0
15/03:00am 17.0 18.6 14.9 87 1.2 CALM 0 0 0 0 1017.3 1017.2 0.0
15/02:30am 18.1 18.5 15.4 84 1.6 SE 7 11 4 6 1017.3 - 0.0
15/02:00am 19.7 19.5 15.6 77 2.4 SE 11 15 6 8 1017.5 - 0.0
15/01:30am 19.3 19.1 15.8 80 2.1 SE 11 15 6 8 1017.9 - 0.0
15/01:00am 19.0 19.2 15.8 82 1.9 SSE 9 13 5 7 1018.2 - 0.0
15/12:30am 19.9 20.6 15.7 77 2.5 SSE 6 9 3 5 1018.8 - 0.0
15/12:00am 20.3 20.4 15.6 74 2.8 SE 9 13 5 7 1019.0 1019.0 0.0
 
Date/Time
EST
Temp
°C
App
Temp
°C
Dew
Point
°C
Rel
Hum
%
Delta-T
°C
Wind Press
QNH
hPa
Press
MSL
hPa
Rain since
9am
mm
Dir  Spd
km/h
Gust
km/h
Spd
kts
Gust
kts
14/11:30pm 20.3 20.4 15.6 74 2.8 SSE 9 17 5 9 1018.9 - 0.0
14/11:00pm 20.2 20.5 14.9 71 3.1 S 7 15 4 8 1018.8 - 0.0
14/10:30pm 19.7 19.5 14.7 73 2.9 SSE 9 13 5 7 1019.2 - 0.0
14/10:00pm 18.3 19.2 13.9 75 2.5 SSE 2 7 1 4 1019.2 - 0.0
14/09:30pm 19.7 19.6 14.0 69 3.3 SE 7 15 4 8 1019.4 - 0.0
14/09:00pm 20.2 19.5 13.2 64 4.0 SE 9 15 5 8 1019.4 1019.4 0.0
14/08:30pm 20.7 19.1 12.7 60 4.5 SE 13 24 7 13 1019.2 - 0.0
14/08:00pm 20.5 18.9 12.7 61 4.4 SE 13 20 7 11 1018.8 - 0.0
14/07:30pm 20.5 18.4 12.3 59 4.6 SE 15 22 8 12 1018.5 - 0.0
14/07:00pm 20.8 18.1 11.8 56 5.0 SE 17 33 9 18 1018.2 - 0.0
14/06:30pm 20.9 18.0 11.1 53 5.4 SSE 17 24 9 13 1017.9 - 0.0
14/06:00pm 21.5 17.9 10.7 50 5.9 SE 20 32 11 17 1017.8 1017.8 0.0
14/05:30pm 22.2 17.5 10.5 47 6.4 SE 26 43 14 23 1017.7 - 0.0
14/05:00pm 22.7 18.2 10.0 44 6.9 SE 24 39 13 21 1017.6 - 0.0
14/04:30pm 23.2 18.1 10.5 44 7.0 SE 28 43 15 23 1017.5 - 0.0
14/04:00pm 23.4 17.9 10.7 44 7.0 SE 30 48 16 26 1017.4 - 0.0
14/03:30pm 24.2 19.2 11.1 43 7.3 ESE 28 41 15 22 1017.4 - 0.0
14/03:00pm 23.8 18.3 12.0 47 6.7 ESE 32 46 17 25 1017.6 1017.6 0.0
14/02:39pm 24.2 19.5 12.1 46 6.9 SE 28 48 15 26 1017.7 - 0.0
14/02:30pm 24.2 19.1 11.8 45 7.0 ESE 30 46 16 25 1017.7 - 0.0
14/02:00pm 24.7 20.2 12.5 46 7.0 SE 28 50 15 27 1018.1 - 0.0
14/01:50pm 24.8 20.2 12.4 46 7.1 SE 28 50 15 27 1018.3 - 0.0
14/01:30pm 24.9 20.8 12.8 47 7.0 SE 26 39 14 21 1018.5 - 0.0
14/01:04pm 24.5 19.6 12.4 46 6.9 SE 30 48 16 26 1018.8 - 0.0
14/01:00pm 24.9 20.6 13.2 48 6.8 SE 28 43 15 23 1018.8 - 0.0
14/12:38pm 25.0 20.2 12.9 47 7.0 ESE 30 48 16 26 1019.1 - 0.0
14/12:30pm 24.4 19.3 13.2 49 6.5 ESE 32 44 17 24 1019.2 - 0.0
14/12:07pm 23.6 19.4 13.4 52 5.9 SE 28 46 15 25 1019.6 - 0.0
14/12:00pm 23.6 20.3 14.0 55 5.6 SE 24 35 13 19 1019.7 1019.8 0.0
14/11:30am 23.0 20.5 15.1 61 4.7 ESE 22 32 12 17 1020.1 - 0.0
14/11:00am 23.0 19.6 15.9 64 4.3 SE 28 46 15 25 1020.4 - 0.0
14/10:59am 23.0 19.6 15.7 63 4.4 SE 28 46 15 25 1020.5 - 0.0
14/10:30am 22.1 20.6 16.3 69 3.5 ESE 19 32 10 17 1020.5 - 0.0
14/10:00am 20.9 19.5 16.6 76 2.6 SE 19 33 10 18 1020.8 - 0.0
14/09:30am 22.8 20.6 16.0 65 4.1 SE 22 39 12 21 1020.6 - 0.0
14/09:00am 21.9 20.3 16.4 71 3.3 SE 20 33 11 18 1020.4 1020.4 2.2
14/08:30am 21.7 19.3 16.4 72 3.2 SSE 24 39 13 21 1020.0 - 2.2
14/08:00am 21.2 19.7 16.2 73 3.0 SE 19 30 10 16 1019.7 - 2.2
14/07:30am 21.0 19.5 16.7 76 2.6 SE 20 33 11 18 1019.3 - 2.2
14/07:00am 21.1 19.9 17.0 77 2.5 SE 19 28 10 15 1018.9 - 2.2
14/06:30am 20.7 19.6 16.4 76 2.6 SE 17 26 9 14 1018.7 - 2.2
14/06:00am 20.8 20.3 17.0 79 2.3 SE 15 24 8 13 1018.3 1018.3 2.2
14/05:30am 20.9 20.5 17.1 79 2.3 SE 15 24 8 13 1018.0 - 2.2
14/05:00am 20.7 20.7 17.3 81 2.1 SE 13 17 7 9 1017.9 - 2.2
14/04:30am 21.0 19.9 17.4 80 2.2 SE 19 24 10 13 1017.9 - 2.2
14/04:00am 21.1 20.6 17.9 82 2.0 SE 17 24 9 13 1017.7 - 2.2
14/03:30am 21.2 21.3 18.3 83 1.8 SE 15 24 8 13 1017.8 - 2.2
14/03:00am 20.9 21.8 18.3 85 1.6 SE 11 15 6 8 1017.8 1017.8 2.2
14/02:30am 20.9 20.9 18.0 83 1.8 SE 15 22 8 12 1017.9 - 2.2
14/02:07am 20.9 22.1 19.0 89 1.2 SE 11 20 6 11 1018.2 - 2.2
14/02:00am 20.9 21.3 19.0 89 1.2 ESE 15 22 8 12 1018.3 - 2.0
14/01:43am 21.1 20.6 18.7 86 1.5 SE 19 32 10 17 1018.4 - 0.6
14/01:30am 22.0 21.5 17.8 77 2.6 SE 17 28 9 15 1018.3 - 0.0
14/01:00am 22.0 21.7 18.3 79 2.3 SE 17 24 9 13 1018.6 - 0.0
14/12:30am 22.3 22.0 18.3 78 2.5 SE 17 22 9 12 1018.9 - 0.0
14/12:00am 22.0 21.1 17.8 77 2.6 ESE 19 32 10 17 1019.0 1019.0 0.0
 
Date/Time
EST
Temp
°C
App
Temp
°C
Dew
Point
°C
Rel
Hum
%
Delta-T
°C
Wind Press
QNH
hPa
Press
MSL
hPa
Rain since
9am
mm
Dir  Spd
km/h
Gust
km/h
Spd
kts
Gust
kts
13/11:30pm 22.1 21.0 17.4 74 2.9 SE 19 32 10 17 1019.2 - 0.0
13/11:00pm 22.1 21.7 18.1 78 2.5 SE 17 26 9 14 1019.1 - 0.0
13/10:30pm 22.2 22.0 17.7 75 2.8 SE 15 26 8 14 1019.1 - 0.0
13/10:00pm 22.5 20.8 17.3 72 3.2 SE 22 33 12 18 1019.1 - 0.0
13/09:30pm 22.2 21.1 17.8 76 2.7 SE 20 35 11 19 1019.1 - 0.0
13/09:00pm 22.5 21.5 18.0 75 2.8 SE 20 32 11 17 1018.9 1018.9 0.0
13/08:30pm 22.3 21.5 18.0 76 2.7 SE 19 32 10 17 1018.6 - 0.0
13/08:00pm 22.2 21.2 17.5 74 2.9 SE 19 32 10 17 1018.2 - 0.0

Other Formats:

Comma delimited format used in spreadsheet applications
http://www.bom.gov.au/fwo/IDQ60801/IDQ60801.95283.axf

JavaScript Object Notation format (JSON) in row-major order
http://www.bom.gov.au/fwo/IDQ60801/IDQ60801.95283.json